Chicago Bridge — H9NR — position and weather

sailwx.info

Track history (hours):
 
Tides and Currents Weather Stations Pressure Air Temp Water Temp Dewpoint Dewpoint Depression Visibility Wind Speed Wind Dir Waves Ship Positions

Chicago Bridge

Last reported at 2014-Aug-15 07:15 UTC. Time now 2014-Aug-20 20:32 UTC.
Position N 37°25' W 125°28'.

Length 279 m; draft 10.4 m.

Type: Ship (hazmat cat B). MMSI: 352018000.

Date/timePositionNaut miles runAvg speedWind from/ knotsBaromVisibWave heightAir tempDewpointWater temp
2014-Aug-15 07:15N 37°25' W 125°28'3219.1
2014-Aug-15 05:33N 37°04' W 124°57'1918.9
2014-Aug-15 04:33N 36°52' W 124°38'5917.7
2014-Aug-15 01:11N 36°15' W 123°40'1217.6
2014-Aug-15 00:31N 36°08' W 123°29'1717.8
2014-Aug-14 23:34N 35°57' W 123°12'1818.1
2014-Aug-14 22:33N 35°47' W 122°54'7 7.4
2014-Aug-14 21:33N 35°42' W 122°47'6 6.2
2014-Aug-14 20:33N 35°37' W 122°42'1818.5
2014-Aug-14 19:34N 35°26' W 122°24'1716.9
2014-Aug-14 18:34N 35°15' W 122°08'1616.0
2014-Aug-14 17:33N 35°05' W 121°53'1616.2
2014-Aug-14 16:34N 34°54' W 121°38'1616.3
2014-Aug-14 15:34N 34°44' W 121°23'4915.7
2014-Aug-14 12:25N 34°21' W 120°30'1416.7
2014-Aug-14 11:33N 34°18' W 120°13'1716.6
2014-Aug-14 10:33N 34°13' W 119°54'1716.5
2014-Aug-14 09:33N 34°09' W 119°35'2116.6
2014-Aug-14 08:16N 34°02' W 119°10'1013.5
2014-Aug-14 07:33N 33°57' W 119°00'1211.7
2014-Aug-14 06:33N 33°51' W 118°48'30 1.1
2014-Aug-13 03:21N 33°45' W 118°12'0 0.0
2014-Aug-12 22:09N 33°45' W 118°12'0 0.0
2014-Aug-12 21:09N 33°45' W 118°12'0 0.0
2014-Aug-12 19:15N 33°45' W 118°12'0 0.0
2014-Aug-12 05:15N 33°45' W 118°12'0 0.0
2014-Aug-12 04:27N 33°45' W 118°12'0 0.0
2014-Aug-12 01:21N 33°45' W 118°12'0 0.0
2014-Aug-12 00:33N 33°45' W 118°12'0 0.0
2014-Aug-11 23:21N 33°45' W 118°12'0 0.0
2014-Aug-11 21:32N 33°45' W 118°12'0 0.0
2014-Aug-11 09:32N 33°45' W 118°12'0 0.0
2014-Aug-11 06:20N 33°45' W 118°12'0 0.0
2014-Aug-11 03:14N 33°45' W 118°12'0 0.0
2014-Aug-10 19:32N 33°45' W 118°12'0 0.0
2014-Aug-10 10:10N 33°45' W 118°12'  
2014-Aug-07 20:10N 33°36' W 118°16'810.3
2014-Aug-07 19:22N 33°38' W 118°26'7410.9
2014-Aug-07 12:34N 34°10' W 119°47'1716.5
2014-Aug-07 11:34N 34°14' W 120°06'1616.3
2014-Aug-07 10:33N 34°18' W 120°25'11816.7
2014-Aug-07 03:27N 35°15' W 122°32'1820.2
2014-Aug-07 02:33N 35°25' W 122°50'2020.3
2014-Aug-07 01:33N 35°36' W 123°11'1313.0
2014-Aug-07 00:33N 35°43' W 123°24'9 8.6
2014-Aug-06 23:33N 35°46' W 123°34'2119.9
2014-Aug-06 22:31N 35°57' W 123°56'14720.7
2014-Aug-06 15:24N 37°13' W 126°33'2020.7
2014-Aug-06 14:26N 37°23' W 126°55'2520.9
2014-Aug-06 13:14N 37°36' W 127°22'1420.9
2014-Aug-06 12:33N 37°43' W 127°38'  
Track history (hours):
 
Tides and Currents Weather Stations Pressure Air Temp Water Temp Dewpoint Dewpoint Depression Visibility Wind Speed Wind Dir Waves Ship Positions

Chicago Bridge

Last reported at 2014-Aug-15 07:15 UTC. Time now 2014-Aug-20 20:32 UTC.
Position N 37°25' W 125°28'.

Length 279 m; draft 10.4 m.

Type: Ship (hazmat cat B). MMSI: 352018000.

Date/timePositionNaut miles runAvg speedWind from/ knotsBaromVisibWave heightAir tempDewpointWater temp
2014-Aug-15 07:15N 37°25' W 125°28'3219.1
2014-Aug-15 05:33N 37°04' W 124°57'1918.9
2014-Aug-15 04:33N 36°52' W 124°38'5917.7
2014-Aug-15 01:11N 36°15' W 123°40'1217.6
2014-Aug-15 00:31N 36°08' W 123°29'1717.8
2014-Aug-14 23:34N 35°57' W 123°12'1818.1
2014-Aug-14 22:33N 35°47' W 122°54'7 7.4
2014-Aug-14 21:33N 35°42' W 122°47'6 6.2
2014-Aug-14 20:33N 35°37' W 122°42'1818.5
2014-Aug-14 19:34N 35°26' W 122°24'1716.9
2014-Aug-14 18:34N 35°15' W 122°08'1616.0
2014-Aug-14 17:33N 35°05' W 121°53'1616.2
2014-Aug-14 16:34N 34°54' W 121°38'1616.3
2014-Aug-14 15:34N 34°44' W 121°23'4915.7
2014-Aug-14 12:25N 34°21' W 120°30'1416.7
2014-Aug-14 11:33N 34°18' W 120°13'1716.6
2014-Aug-14 10:33N 34°13' W 119°54'1716.5
2014-Aug-14 09:33N 34°09' W 119°35'2116.6
2014-Aug-14 08:16N 34°02' W 119°10'1013.5
2014-Aug-14 07:33N 33°57' W 119°00'1211.7
2014-Aug-14 06:33N 33°51' W 118°48'30 1.1
2014-Aug-13 03:21N 33°45' W 118°12'0 0.0
2014-Aug-12 22:09N 33°45' W 118°12'0 0.0
2014-Aug-12 21:09N 33°45' W 118°12'0 0.0
2014-Aug-12 19:15N 33°45' W 118°12'0 0.0
2014-Aug-12 05:15N 33°45' W 118°12'0 0.0
2014-Aug-12 04:27N 33°45' W 118°12'0 0.0
2014-Aug-12 01:21N 33°45' W 118°12'0 0.0
2014-Aug-12 00:33N 33°45' W 118°12'0 0.0
2014-Aug-11 23:21N 33°45' W 118°12'0 0.0
2014-Aug-11 21:32N 33°45' W 118°12'0 0.0
2014-Aug-11 09:32N 33°45' W 118°12'0 0.0
2014-Aug-11 06:20N 33°45' W 118°12'0 0.0
2014-Aug-11 03:14N 33°45' W 118°12'0 0.0
2014-Aug-10 19:32N 33°45' W 118°12'0 0.0
2014-Aug-10 10:10N 33°45' W 118°12'  
2014-Aug-07 20:10N 33°36' W 118°16'810.3
2014-Aug-07 19:22N 33°38' W 118°26'7410.9
2014-Aug-07 12:34N 34°10' W 119°47'1716.5
2014-Aug-07 11:34N 34°14' W 120°06'1616.3
2014-Aug-07 10:33N 34°18' W 120°25'11816.7
2014-Aug-07 03:27N 35°15' W 122°32'1820.2
2014-Aug-07 02:33N 35°25' W 122°50'2020.3
2014-Aug-07 01:33N 35°36' W 123°11'1313.0
2014-Aug-07 00:33N 35°43' W 123°24'9 8.6
2014-Aug-06 23:33N 35°46' W 123°34'2119.9
2014-Aug-06 22:31N 35°57' W 123°56'14720.7
2014-Aug-06 15:24N 37°13' W 126°33'2020.7
2014-Aug-06 14:26N 37°23' W 126°55'2520.9
2014-Aug-06 13:14N 37°36' W 127°22'1420.9
2014-Aug-06 12:33N 37°43' W 127°38'  

Dump ship's entire track history